Time,TemperatureF,DewpointF,PressureIn,WindDirection,WindDirectionDegrees,WindSpeedMPH,WindSpeedGustMPH,Humidity,HourlyPrecipIn,Conditions,Clouds,dailyrainin,SoftwareType,DateUTC
2013-02-07 00:00:00,66.6,57.1,30.00,East,90,0.7,2.5,72,0.00,,,0.00,WSDL version 420,2013-02-06 13:00:00,
2013-02-07 00:05:00,66.4,57.1,30.00,ESE,106,0.4,2.5,72,0.00,,,0.00,WSDL version 420,2013-02-06 13:05:00,
2013-02-07 00:10:00,66.2,57.3,30.00,SE,124,1.7,2.7,73,0.00,,,0.00,WSDL version 420,2013-02-06 13:10:00,
2013-02-07 00:15:00,66.2,57.7,29.97,East,90,0.7,2.7,75,-99.99,,,-99.99,WSDL version 420,2013-02-06 13:15:00,
2013-02-07 00:20:00,66.2,57.7,29.97,ESE,104,0.0,2.5,74,0.00,,,0.00,WSDL version 420,2013-02-06 13:20:00,
2013-02-07 00:25:00,66.0,57.5,29.97,SE,138,0.8,2.0,74,0.00,,,0.00,WSDL version 420,2013-02-06 13:25:00,
2013-02-07 00:30:00,66.0,57.9,30.00,SE,131,1.0,2.0,75,0.00,,,0.00,WSDL version 420,2013-02-06 13:30:00,
2013-02-07 00:35:00,65.9,57.7,30.00,East,100,0.9,2.9,75,0.00,,,0.00,WSDL version 420,2013-02-06 13:35:00,
2013-02-07 00:40:00,65.8,57.8,30.00,ESE,118,0.1,2.9,75,0.00,,,0.00,WSDL version 420,2013-02-06 13:40:00,
2013-02-07 00:45:00,65.7,57.7,30.00,SE,124,0.0,2.9,75,0.00,,,0.00,WSDL version 420,2013-02-06 13:45:00,
2013-02-07 00:50:00,65.5,57.4,30.00,ESE,109,0.0,1.6,75,0.00,,,0.00,WSDL version 420,2013-02-06 13:50:00,
2013-02-07 00:55:00,65.4,57.7,30.00,East,96,0.0,2.0,76,0.00,,,0.00,WSDL version 420,2013-02-06 13:55:00,
2013-02-07 01:00:00,65.2,57.4,29.97,East,95,0.0,2.0,76,0.00,,,0.00,WSDL version 420,2013-02-06 14:00:00,
2013-02-07 01:05:00,65.1,57.3,29.97,ESE,109,0.0,2.0,76,-99.99,,,-99.99,WSDL version 420,2013-02-06 14:05:00,
2013-02-07 01:10:00,64.8,57.1,29.97,SE,124,0.0,2.0,77,0.00,,,0.00,WSDL version 420,2013-02-06 14:10:00,
2013-02-07 01:15:00,64.4,57.0,29.97,South,180,0.0,2.0,77,0.00,,,0.00,WSDL version 420,2013-02-06 14:15:00,
2013-02-07 01:20:00,64.0,56.9,29.97,South,180,0.0,0.0,77,0.00,,,0.00,WSDL version 420,2013-02-06 14:20:00,
2013-02-07 01:25:00,63.6,56.6,29.97,South,180,0.0,0.0,78,0.00,,,0.00,WSDL version 420,2013-02-06 14:25:00,
2013-02-07 01:30:00,63.2,56.6,29.94,SSW,203,0.0,0.0,79,0.00,,,0.00,WSDL version 420,2013-02-06 14:30:00,
2013-02-07 01:35:00,62.9,56.4,29.94,SW,215,0.0,0.0,79,0.00,,,0.00,WSDL version 420,2013-02-06 14:35:00,
2013-02-07 01:40:00,62.8,56.4,29.94,SSW,203,0.0,0.0,80,0.00,,,0.00,WSDL version 420,2013-02-06 14:40:00,
2013-02-07 01:45:00,62.5,56.5,29.97,SSW,203,0.0,0.0,81,0.00,,,0.00,WSDL version 420,2013-02-06 14:45:00,
2013-02-07 01:50:00,62.2,56.3,29.97,SW,225,0.0,0.0,81,0.00,,,0.00,WSDL version 420,2013-02-06 14:50:00,
2013-02-07 01:55:00,62.0,56.5,29.97,SW,225,0.0,0.0,82,0.00,,,0.00,WSDL version 420,2013-02-06 14:55:00,
2013-02-07 02:00:00,61.9,56.8,29.97,SSW,203,0.0,0.0,83,0.00,,,0.00,WSDL version 420,2013-02-06 15:00:00,
2013-02-07 02:05:00,61.7,56.6,29.97,SSW,203,0.0,0.0,83,0.00,,,0.00,WSDL version 420,2013-02-06 15:05:00,
2013-02-07 02:10:00,61.5,56.7,29.97,SW,225,0.0,0.0,84,0.00,,,0.00,WSDL version 420,2013-02-06 15:10:00,
2013-02-07 02:15:00,61.2,56.5,29.97,SW,225,0.0,0.0,84,0.00,,,0.00,WSDL version 420,2013-02-06 15:15:00,
2013-02-07 02:20:00,61.1,56.7,29.97,SW,225,0.0,0.0,86,0.00,,,0.00,WSDL version 420,2013-02-06 15:20:00,
2013-02-07 02:25:00,61.0,56.5,29.97,SW,225,0.0,0.0,86,0.00,,,0.00,WSDL version 420,2013-02-06 15:25:00,
2013-02-07 02:30:00,61.0,56.8,29.97,SW,225,0.0,0.0,87,0.00,,,0.00,WSDL version 420,2013-02-06 15:30:00,
2013-02-07 02:35:00,60.8,56.7,29.97,SW,225,0.0,0.0,87,0.00,,,0.00,WSDL version 420,2013-02-06 15:35:00,
2013-02-07 02:40:00,60.9,56.9,29.97,SSW,203,0.0,0.0,87,0.00,,,0.00,WSDL version 420,2013-02-06 15:40:00,
2013-02-07 02:45:00,60.7,57.1,30.00,SW,225,0.0,0.0,88,0.00,,,0.00,WSDL version 420,2013-02-06 15:45:00,
2013-02-07 02:50:00,60.7,57.1,30.00,SSW,203,0.0,0.0,88,0.00,,,0.00,WSDL version 420,2013-02-06 15:50:00,
2013-02-07 02:55:00,60.7,57.3,30.00,SW,225,0.0,0.0,89,0.00,,,0.00,WSDL version 420,2013-02-06 15:55:00,
2013-02-07 03:00:00,60.4,57.3,29.97,SW,225,0.0,0.0,90,0.00,,,0.00,WSDL version 420,2013-02-06 16:00:00,
2013-02-07 03:05:00,60.6,57.4,29.97,SSW,200,0.0,0.0,89,0.00,,,0.00,WSDL version 420,2013-02-06 16:05:00,
2013-02-07 03:10:00,60.6,57.3,29.97,East,90,0.0,0.0,89,0.00,,,0.00,WSDL version 420,2013-02-06 16:10:00,
2013-02-07 03:15:00,60.5,57.4,29.97,SW,230,0.0,0.0,89,0.00,,,0.00,WSDL version 420,2013-02-06 16:15:00,
2013-02-07 03:20:00,60.4,57.4,29.97,WSW,240,0.0,0.0,90,0.00,,,0.00,WSDL version 420,2013-02-06 16:20:00,
2013-02-07 03:25:00,60.3,57.4,29.97,SW,225,0.0,0.0,90,0.00,,,0.00,WSDL version 420,2013-02-06 16:25:00,
2013-02-07 03:30:00,60.5,57.6,29.94,ESE,108,0.0,0.9,91,0.00,,,0.00,WSDL version 420,2013-02-06 16:30:00,
2013-02-07 03:35:00,60.5,57.9,29.94,SE,135,0.0,0.9,91,0.00,,,0.00,WSDL version 420,2013-02-06 16:35:00,
2013-02-07 03:40:00,60.5,57.9,29.94,NW,315,0.0,0.0,91,0.00,,,0.00,WSDL version 420,2013-02-06 16:40:00,
2013-02-07 03:45:00,60.2,57.6,29.94,NW,315,0.0,0.0,91,-99.99,,,-99.99,WSDL version 420,2013-02-06 16:45:00,
2013-02-07 03:50:00,59.9,57.3,29.94,NW,315,0.0,0.0,91,0.00,,,0.00,WSDL version 420,2013-02-06 16:50:00,
2013-02-07 03:55:00,59.9,57.5,29.94,NW,315,0.0,0.0,91,0.00,,,0.00,WSDL version 420,2013-02-06 16:55:00,
2013-02-07 04:00:00,60.0,57.6,29.94,NW,315,0.0,0.0,92,0.00,,,0.00,WSDL version 420,2013-02-06 17:00:00,
2013-02-07 04:05:00,60.1,57.8,29.94,NW,315,0.0,0.0,92,0.00,,,0.00,WSDL version 420,2013-02-06 17:05:00,
2013-02-07 04:10:00,59.8,57.5,29.94,NW,315,0.0,0.0,92,0.00,,,0.00,WSDL version 420,2013-02-06 17:10:00,
2013-02-07 04:15:00,59.7,57.4,29.94,NW,315,0.0,0.0,92,0.00,,,0.00,WSDL version 420,2013-02-06 17:15:00,
2013-02-07 04:20:00,59.5,57.3,29.94,NW,315,0.0,0.0,92,0.00,,,0.00,WSDL version 420,2013-02-06 17:20:00,
2013-02-07 04:25:00,59.4,57.1,29.94,NW,315,0.0,0.0,92,0.00,,,0.00,WSDL version 420,2013-02-06 17:25:00,
2013-02-07 04:30:00,59.3,57.0,29.94,NW,305,0.0,0.0,92,0.00,,,0.00,WSDL version 420,2013-02-06 17:30:00,
2013-02-07 04:35:00,59.2,56.9,29.94,West,270,0.0,0.0,92,0.00,,,0.00,WSDL version 420,2013-02-06 17:35:00,
2013-02-07 04:40:00,59.2,57.3,29.94,West,270,0.0,0.0,93,0.00,,,0.00,WSDL version 420,2013-02-06 17:40:00,
2013-02-07 04:45:00,59.0,57.1,29.94,West,270,0.0,0.0,93,0.00,,,0.00,WSDL version 420,2013-02-06 17:45:00,
2013-02-07 04:50:00,59.0,57.1,29.94,West,270,0.0,0.0,93,0.00,,,0.00,WSDL version 420,2013-02-06 17:50:00,
2013-02-07 04:55:00,59.0,57.2,29.94,West,270,0.0,0.0,94,0.00,,,0.00,WSDL version 420,2013-02-06 17:55:00,
2013-02-07 05:00:00,59.0,57.2,29.94,West,270,0.0,0.0,94,0.00,,,0.00,WSDL version 420,2013-02-06 18:00:00,
2013-02-07 05:05:00,59.0,57.4,29.94,West,270,0.0,0.0,94,0.00,,,0.00,WSDL version 420,2013-02-06 18:05:00,
2013-02-07 05:10:00,59.1,57.5,29.94,West,270,0.0,0.0,94,0.00,,,0.00,WSDL version 420,2013-02-06 18:10:00,
2013-02-07 05:15:00,58.9,57.3,29.94,West,270,0.0,0.0,94,0.00,,,0.00,WSDL version 420,2013-02-06 18:15:00,
2013-02-07 05:20:00,58.9,57.4,29.94,West,270,0.0,0.0,94,-99.99,,,-99.99,WSDL version 420,2013-02-06 18:20:00,
2013-02-07 05:25:00,59.0,57.4,29.94,West,270,0.0,0.0,94,0.00,,,0.00,WSDL version 420,2013-02-06 18:25:00,
2013-02-07 05:30:00,58.9,57.6,29.94,West,270,0.0,0.0,96,0.00,,,0.00,WSDL version 420,2013-02-06 18:30:00,
2013-02-07 05:35:00,59.0,57.6,29.94,West,270,0.0,0.0,96,0.00,,,0.00,WSDL version 420,2013-02-06 18:35:00,
2013-02-07 05:40:00,59.1,57.8,29.94,West,270,0.0,0.0,96,0.00,,,0.00,WSDL version 420,2013-02-06 18:40:00,
2013-02-07 05:45:00,59.2,58.0,29.94,WSW,257,0.0,0.0,96,0.00,,,0.00,WSDL version 420,2013-02-06 18:45:00,
2013-02-07 05:50:00,59.4,58.1,29.94,East,100,0.0,0.0,96,0.00,,,0.00,WSDL version 420,2013-02-06 18:50:00,
2013-02-07 05:55:00,59.5,58.2,29.94,ESE,113,0.0,1.3,96,0.00,,,0.00,WSDL version 420,2013-02-06 18:55:00,
2013-02-07 06:00:00,59.6,58.3,29.94,ESE,113,0.0,1.3,96,0.00,,,0.00,WSDL version 420,2013-02-06 19:00:00,
2013-02-07 06:05:00,59.5,58.3,29.94,NE,55,0.0,1.1,96,0.00,,,0.00,WSDL version 420,2013-02-06 19:05:00,
2013-02-07 06:10:00,59.4,58.1,29.94,ENE,65,0.0,2.0,96,0.00,,,0.00,WSDL version 420,2013-02-06 19:10:00,
2013-02-07 06:15:00,59.4,58.1,29.94,East,90,0.0,2.0,96,0.00,,,0.00,WSDL version 420,2013-02-06 19:15:00,
2013-02-07 06:20:00,59.5,58.2,29.94,East,90,0.0,1.6,96,0.00,,,0.00,WSDL version 420,2013-02-06 19:20:00,
2013-02-07 06:25:00,59.3,58.0,29.94,ESE,113,0.0,1.1,96,0.00,,,0.00,WSDL version 420,2013-02-06 19:25:00,
2013-02-07 06:30:00,59.0,57.7,29.94,ESE,113,0.0,0.0,96,0.00,,,0.00,WSDL version 420,2013-02-06 19:30:00,
2013-02-07 06:35:00,58.8,57.6,29.94,ESE,113,0.0,0.0,96,0.00,,,0.00,WSDL version 420,2013-02-06 19:35:00,
2013-02-07 06:40:00,58.8,57.8,29.94,ESE,113,0.0,0.0,97,0.00,,,0.00,WSDL version 420,2013-02-06 19:40:00,
2013-02-07 06:45:00,58.8,57.9,29.94,ESE,113,0.0,0.0,97,-99.99,,,-99.99,WSDL version 420,2013-02-06 19:45:00,
2013-02-07 06:50:00,58.8,57.9,29.94,SSW,206,0.0,1.3,97,0.00,,,0.00,WSDL version 420,2013-02-06 19:50:00,
2013-02-07 06:55:00,59.0,58.1,29.94,SSW,203,0.0,1.3,97,0.00,,,0.00,WSDL version 420,2013-02-06 19:55:00,
2013-02-07 07:00:00,59.2,58.2,29.94,SW,225,0.0,0.0,97,0.00,,,0.00,WSDL version 420,2013-02-06 20:00:00,
2013-02-07 07:05:00,59.4,58.8,29.94,South,174,0.0,0.0,98,0.00,,,0.00,WSDL version 420,2013-02-06 20:05:00,
2013-02-07 07:10:00,59.8,59.2,29.94,SSE,161,0.0,0.9,98,0.00,,,0.00,WSDL version 420,2013-02-06 20:10:00,
2013-02-07 07:15:00,60.4,59.7,29.94,NW,315,0.0,0.9,98,0.00,,,0.00,WSDL version 420,2013-02-06 20:15:00,
2013-02-07 07:20:00,60.6,59.9,29.94,SSW,206,0.0,0.0,98,0.00,,,0.00,WSDL version 420,2013-02-06 20:20:00,
2013-02-07 07:25:00,61.0,60.4,29.94,SE,135,0.0,1.6,98,0.00,,,0.00,WSDL version 420,2013-02-06 20:25:00,
2013-02-07 07:30:00,61.4,60.8,29.97,SE,135,1.1,2.2,98,0.00,,,0.00,WSDL version 420,2013-02-06 20:30:00,
2013-02-07 07:35:00,63.3,63.0,29.97,SE,135,0.4,2.2,99,0.00,,,0.00,WSDL version 420,2013-02-06 20:35:00,
2013-02-07 07:40:00,66.1,65.6,29.97,ESE,103,0.4,2.2,98,0.00,,,0.00,WSDL version 420,2013-02-06 20:40:00,
2013-02-07 07:45:00,66.5,65.7,29.97,ENE,75,1.0,2.2,97,0.00,,,0.00,WSDL version 420,2013-02-06 20:45:00,
2013-02-07 07:50:00,66.7,65.8,29.97,East,90,0.0,2.9,97,0.00,,,0.00,WSDL version 420,2013-02-06 20:50:00,
2013-02-07 07:55:00,66.7,65.8,29.97,ENE,65,0.6,3.1,97,0.00,,,0.00,WSDL version 420,2013-02-06 20:55:00,
2013-02-07 08:00:00,67.1,66.3,29.97,ENE,68,1.2,3.1,97,0.00,,,0.00,WSDL version 420,2013-02-06 21:00:00,
2013-02-07 08:05:00,67.7,65.9,29.97,ENE,75,2.3,3.6,91,0.00,,,0.00,WSDL version 420,2013-02-06 21:05:00,
2013-02-07 08:10:00,68.5,61.4,29.97,East,84,2.6,4.0,75,0.00,,,0.00,WSDL version 420,2013-02-06 21:10:00,
2013-02-07 08:15:00,69.2,59.2,29.94,North,360,2.8,4.0,71,0.00,,,0.00,WSDL version 420,2013-02-06 21:15:00,
2013-02-07 08:20:00,70.4,60.4,29.94,NE,56,1.3,4.0,69,0.00,,,0.00,WSDL version 420,2013-02-06 21:20:00,
2013-02-07 08:25:00,71.7,60.5,29.94,NE,36,2.0,3.4,66,0.00,,,0.00,WSDL version 420,2013-02-06 21:25:00,
2013-02-07 08:30:00,72.9,60.5,29.97,NNW,341,1.7,4.3,62,0.00,,,0.00,WSDL version 420,2013-02-06 21:30:00,
2013-02-07 08:35:00,73.5,58.6,29.97,NNE,19,2.4,4.3,58,0.00,,,0.00,WSDL version 420,2013-02-06 21:35:00,
2013-02-07 08:40:00,74.0,57.4,29.97,NNW,344,2.0,4.9,57,0.00,,,0.00,WSDL version 420,2013-02-06 21:40:00,
2013-02-07 08:45:00,74.8,58.3,29.97,NNW,338,0.4,4.9,57,0.00,,,0.00,WSDL version 420,2013-02-06 21:45:00,
2013-02-07 08:50:00,75.3,56.5,29.97,NNE,31,2.6,4.9,52,0.00,,,0.00,WSDL version 420,2013-02-06 21:50:00,
2013-02-07 08:55:00,76.0,56.6,29.97,NNE,14,2.9,4.9,50,0.00,,,0.00,WSDL version 420,2013-02-06 21:55:00,
2013-02-07 09:00:00,76.5,55.7,29.97,NW,315,2.1,4.9,50,0.00,,,0.00,WSDL version 420,2013-02-06 22:00:00,
2013-02-07 09:05:00,77.0,55.2,29.97,NE,42,2.8,5.4,46,0.00,,,0.00,WSDL version 420,2013-02-06 22:05:00,
2013-02-07 09:10:00,77.7,56.1,29.97,NNW,346,2.9,5.4,47,0.00,,,0.00,WSDL version 420,2013-02-06 22:10:00,
2013-02-07 09:15:00,78.6,55.7,29.97,NE,39,3.6,5.4,45,0.00,,,0.00,WSDL version 420,2013-02-06 22:15:00,
2013-02-07 09:20:00,78.8,55.7,29.97,NNW,345,2.6,5.6,45,0.00,,,0.00,WSDL version 420,2013-02-06 22:20:00,
2013-02-07 09:25:00,79.9,55.9,29.97,NNW,331,3.6,5.6,43,0.00,,,0.00,WSDL version 420,2013-02-06 22:25:00,
2013-02-07 09:30:00,80.0,55.5,29.97,NW,325,3.8,6.5,43,0.00,,,0.00,WSDL version 420,2013-02-06 22:30:00,
2013-02-07 09:35:00,80.3,55.3,29.97,North,3,2.5,8.5,42,0.00,,,0.00,WSDL version 420,2013-02-06 22:35:00,
2013-02-07 09:40:00,80.1,55.0,29.97,ENE,61,3.3,8.5,42,0.00,,,0.00,WSDL version 420,2013-02-06 22:40:00,
2013-02-07 09:45:00,80.7,54.7,29.97,North,357,3.0,6.3,40,0.00,,,0.00,WSDL version 420,2013-02-06 22:45:00,
2013-02-07 09:50:00,81.7,55.3,29.97,NNE,32,3.5,5.8,40,0.00,,,0.00,WSDL version 420,2013-02-06 22:50:00,
2013-02-07 09:55:00,82.3,55.8,29.97,WNW,296,2.9,5.6,40,0.00,,,0.00,WSDL version 420,2013-02-06 22:55:00,
2013-02-07 10:00:00,82.8,54.0,30.00,NE,48,4.2,7.6,36,0.00,,,0.00,WSDL version 420,2013-02-06 23:00:00,
2013-02-07 10:05:00,82.2,53.5,30.00,North,350,3.5,7.6,38,0.00,,,0.00,WSDL version 420,2013-02-06 23:05:00,
2013-02-07 10:10:00,83.2,54.0,30.00,NNW,334,2.9,6.3,36,0.00,,,0.00,WSDL version 420,2013-02-06 23:10:00,
2013-02-07 10:15:00,83.2,53.1,30.00,NNE,19,2.5,7.4,36,-99.99,,,-99.99,WSDL version 420,2013-02-06 23:15:00,
2013-02-07 10:20:00,84.2,53.6,30.00,NW,321,3.4,7.4,34,0.00,,,0.00,WSDL version 420,2013-02-06 23:20:00,
2013-02-07 10:25:00,84.3,52.9,30.00,NNE,15,3.3,7.4,34,0.00,,,0.00,WSDL version 420,2013-02-06 23:25:00,
2013-02-07 10:30:00,84.6,53.2,30.03,North,357,2.6,7.4,34,0.00,,,0.00,WSDL version 420,2013-02-06 23:30:00,
2013-02-07 10:35:00,84.5,53.1,30.03,NNE,16,2.9,7.6,34,0.00,,,0.00,WSDL version 420,2013-02-06 23:35:00,
2013-02-07 10:40:00,83.5,51.6,30.03,North,6,4.3,8.1,34,0.00,,,0.00,WSDL version 420,2013-02-06 23:40:00,
2013-02-07 10:45:00,83.2,51.6,30.06,NNW,334,4.7,10.5,34,0.00,,,0.00,WSDL version 420,2013-02-06 23:45:00,
2013-02-07 10:50:00,83.8,52.5,30.06,NNW,343,3.8,10.5,34,0.00,,,0.00,WSDL version 420,2013-02-06 23:50:00,
2013-02-07 10:55:00,83.1,51.9,30.06,NNE,17,4.5,8.5,34,-99.99,,,-99.99,WSDL version 420,2013-02-06 23:55:00,
2013-02-07 11:00:00,84.3,52.4,30.00,NE,45,4.7,8.5,33,0.00,,,0.00,WSDL version 420,2013-02-07 00:00:00,
2013-02-07 11:05:00,84.3,52.1,30.00,North,353,4.8,8.5,33,0.00,,,0.00,WSDL version 420,2013-02-07 00:05:00,
2013-02-07 11:10:00,84.7,52.2,30.00,North,349,3.8,7.4,32,0.00,,,0.00,WSDL version 420,2013-02-07 00:10:00,
2013-02-07 11:15:00,85.8,52.5,30.06,NE,53,4.0,6.0,32,0.00,,,0.00,WSDL version 420,2013-02-07 00:15:00,
2013-02-07 11:20:00,85.1,52.2,30.06,ENE,75,5.1,11.0,32,0.00,,,0.00,WSDL version 420,2013-02-07 00:20:00,
2013-02-07 11:25:00,85.8,52.3,30.06,North,360,3.7,11.0,32,0.00,,,0.00,WSDL version 420,2013-02-07 00:25:00,
2013-02-07 11:30:00,86.2,52.4,30.03,WNW,302,4.3,8.7,31,0.00,,,0.00,WSDL version 420,2013-02-07 00:30:00,
2013-02-07 11:35:00,88.1,52.8,30.03,NE,39,3.4,8.7,30,0.00,,,0.00,WSDL version 420,2013-02-07 00:35:00,
2013-02-07 11:40:00,87.4,52.2,30.03,North,10,3.9,8.1,30,0.00,,,0.00,WSDL version 420,2013-02-07 00:40:00,
2013-02-07 11:45:00,88.1,52.4,30.00,West,273,2.6,8.1,30,0.00,,,0.00,WSDL version 420,2013-02-07 00:45:00,
2013-02-07 11:50:00,87.6,52.4,30.00,NNE,16,3.5,7.2,30,0.00,,,0.00,WSDL version 420,2013-02-07 00:50:00,
2013-02-07 12:00:00,89.1,53.2,30.00,NNW,341,4.3,7.4,29,0.00,,,0.00,WSDL version 420,2013-02-07 01:00:00,
2013-02-07 12:05:00,90.4,53.8,30.00,NW,321,3.5,7.2,29,0.00,,,0.00,WSDL version 420,2013-02-07 01:05:00,
2013-02-07 12:10:00,90.4,54.3,30.00,East,90,4.4,7.2,30,0.00,,,0.00,WSDL version 420,2013-02-07 01:10:00,
2013-02-07 12:15:00,88.6,53.7,30.00,NE,45,3.6,7.2,31,0.00,,,0.00,WSDL version 420,2013-02-07 01:15:00,
2013-02-07 12:20:00,89.1,55.4,30.00,NE,42,4.6,7.6,32,0.00,,,0.00,WSDL version 420,2013-02-07 01:20:00,
2013-02-07 12:25:00,89.5,56.2,30.00,East,90,3.6,7.6,32,0.00,,,0.00,WSDL version 420,2013-02-07 01:25:00,
2013-02-07 12:35:00,89.0,56.2,29.97,South,169,4.2,8.1,33,0.00,,,0.00,WSDL version 420,2013-02-07 01:35:00,
2013-02-07 12:40:00,87.7,55.4,29.97,NE,45,5.3,8.5,34,0.00,,,0.00,WSDL version 420,2013-02-07 01:40:00,
2013-02-07 12:45:00,88.0,56.9,29.97,NE,39,4.1,8.5,35,0.00,,,0.00,WSDL version 420,2013-02-07 01:45:00,
2013-02-07 12:55:00,88.3,58.0,29.97,SE,135,3.6,10.1,36,0.00,,,0.00,WSDL version 420,2013-02-07 01:55:00,
2013-02-07 13:00:00,88.6,57.5,29.97,SE,125,4.6,10.1,35,0.00,,,0.00,WSDL version 420,2013-02-07 02:00:00,
2013-02-07 13:05:00,88.8,58.0,29.97,ESE,110,3.1,6.3,36,0.00,,,0.00,WSDL version 420,2013-02-07 02:05:00,
2013-02-07 13:10:00,88.8,57.6,29.97,East,80,3.6,13.0,36,0.00,,,0.00,WSDL version 420,2013-02-07 02:10:00,
2013-02-07 13:15:00,87.6,57.1,29.94,ENE,63,4.6,13.0,36,0.00,,,0.00,WSDL version 420,2013-02-07 02:15:00,
2013-02-07 13:20:00,87.6,57.4,29.94,ESE,110,3.9,9.2,36,0.00,,,0.00,WSDL version 420,2013-02-07 02:20:00,
2013-02-07 13:30:00,87.6,56.4,29.94,SE,140,4.4,11.9,34,0.00,,,0.00,WSDL version 420,2013-02-07 02:30:00,
2013-02-07 13:35:00,87.5,56.9,29.94,NNE,32,4.6,11.9,35,0.00,,,0.00,WSDL version 420,2013-02-07 02:35:00,
2013-02-07 13:40:00,87.1,55.5,29.94,ENE,68,7.0,9.8,35,0.00,,,0.00,WSDL version 420,2013-02-07 02:40:00,
2013-02-07 13:45:00,85.9,55.4,29.94,ESE,105,7.9,15.4,37,0.00,,,0.00,WSDL version 420,2013-02-07 02:45:00,
2013-02-07 13:50:00,85.3,55.8,29.94,ENE,60,6.7,15.4,37,0.00,,,0.00,WSDL version 420,2013-02-07 02:50:00,
2013-02-07 13:55:00,85.9,56.6,29.94,NE,45,4.5,10.3,37,0.00,,,0.00,WSDL version 420,2013-02-07 02:55:00,
2013-02-07 14:00:00,85.8,55.6,29.97,North,10,5.5,10.7,37,0.00,,,0.00,WSDL version 420,2013-02-07 03:00:00,
2013-02-07 14:05:00,85.1,56.4,29.97,ESE,106,4.6,12.8,38,0.00,,,0.00,WSDL version 420,2013-02-07 03:05:00,
2013-02-07 14:10:00,85.7,56.2,29.97,ENE,76,5.4,12.8,37,0.00,,,0.00,WSDL version 420,2013-02-07 03:10:00,
2013-02-07 14:15:00,86.4,56.3,29.97,NNE,23,4.8,13.4,36,0.00,,,0.00,WSDL version 420,2013-02-07 03:15:00,
2013-02-07 14:27:00,86.2,56.5,29.97,ENE,62,5.1,13.2,37,0.00,,,0.00,WSDL version 420,2013-02-07 03:27:00,
2013-02-07 14:32:00,85.6,56.2,29.97,NE,35,6.9,13.2,37,0.00,,,0.00,WSDL version 420,2013-02-07 03:32:00,
2013-02-07 14:37:00,86.2,56.7,29.97,East,86,6.4,9.6,36,0.00,,,0.00,WSDL version 420,2013-02-07 03:37:00,
2013-02-07 14:42:00,85.2,56.5,29.97,East,90,6.3,12.8,38,0.00,,,0.00,WSDL version 420,2013-02-07 03:42:00,
2013-02-07 14:47:00,85.6,57.1,29.94,ENE,60,5.4,12.8,38,0.00,,,0.00,WSDL version 420,2013-02-07 03:47:00,
2013-02-07 14:52:00,85.8,57.0,29.94,ENE,74,4.6,10.7,38,0.00,,,0.00,WSDL version 420,2013-02-07 03:52:00,
2013-02-07 14:57:00,86.6,56.7,29.94,NE,56,5.1,12.1,36,0.00,,,0.00,WSDL version 420,2013-02-07 03:57:00,
2013-02-07 15:02:00,86.6,56.5,29.94,ENE,68,7.3,14.3,36,0.00,,,0.00,WSDL version 420,2013-02-07 04:02:00,
2013-02-07 15:07:00,86.7,56.3,29.94,NE,42,5.2,14.3,35,0.00,,,0.00,WSDL version 420,2013-02-07 04:07:00,
2013-02-07 15:12:00,86.2,56.2,29.94,NE,53,5.6,10.5,36,0.00,,,0.00,WSDL version 420,2013-02-07 04:12:00,
2013-02-07 15:17:00,87.1,57.1,29.94,SE,126,3.5,10.5,36,0.00,,,0.00,WSDL version 420,2013-02-07 04:17:00,
2013-02-07 15:22:00,87.6,56.8,29.94,NNE,30,4.1,9.8,35,0.00,,,0.00,WSDL version 420,2013-02-07 04:22:00,
2013-02-07 15:27:00,88.0,56.3,29.94,NE,42,7.0,12.5,34,0.00,,,0.00,WSDL version 420,2013-02-07 04:27:00,
2013-02-07 15:32:00,87.7,55.9,29.94,NE,48,5.4,12.5,34,0.00,,,0.00,WSDL version 420,2013-02-07 04:32:00,
2013-02-07 15:37:00,87.9,55.5,29.94,NNE,30,5.0,10.5,33,0.00,,,0.00,WSDL version 420,2013-02-07 04:37:00,
2013-02-07 15:42:00,87.4,55.6,29.94,East,86,4.5,10.5,34,0.00,,,0.00,WSDL version 420,2013-02-07 04:42:00,
2013-02-07 15:47:00,87.3,54.7,29.94,ENE,65,6.4,10.3,33,0.00,,,0.00,WSDL version 420,2013-02-07 04:47:00,
2013-02-07 15:52:00,87.2,55.4,29.94,East,87,3.8,10.3,34,0.00,,,0.00,WSDL version 420,2013-02-07 04:52:00,
2013-02-07 16:02:00,88.7,55.7,29.91,NE,42,4.2,12.3,33,0.00,,,0.00,WSDL version 420,2013-02-07 05:02:00,
2013-02-07 16:07:00,88.6,55.0,29.91,NE,53,5.1,12.3,32,-99.99,,,-99.99,WSDL version 420,2013-02-07 05:07:00,
2013-02-07 16:12:00,87.8,54.5,29.91,ENE,64,6.9,11.9,33,0.00,,,0.00,WSDL version 420,2013-02-07 05:12:00,
2013-02-07 16:17:00,86.8,54.3,29.91,ENE,62,5.9,11.9,33,0.00,,,0.00,WSDL version 420,2013-02-07 05:17:00,
2013-02-07 16:22:00,86.5,54.8,29.91,East,98,5.6,12.5,34,0.00,,,0.00,WSDL version 420,2013-02-07 05:22:00,
2013-02-07 16:27:00,86.8,55.1,29.91,ENE,68,4.6,13.2,34,0.00,,,0.00,WSDL version 420,2013-02-07 05:27:00,
2013-02-07 16:32:00,87.0,55.3,29.91,ENE,62,4.8,13.2,34,0.00,,,0.00,WSDL version 420,2013-02-07 05:32:00,
2013-02-07 16:37:00,86.9,55.2,29.91,ENE,73,6.0,13.0,34,0.00,,,0.00,WSDL version 420,2013-02-07 05:37:00,
2013-02-07 16:42:00,86.0,55.0,29.91,ENE,65,4.3,13.0,35,0.00,,,0.00,WSDL version 420,2013-02-07 05:42:00,
2013-02-07 16:47:00,85.7,55.2,29.91,NE,45,5.6,9.6,36,0.00,,,0.00,WSDL version 420,2013-02-07 05:47:00,
2013-02-07 16:52:00,85.7,55.3,29.91,NE,42,4.8,11.0,35,0.00,,,0.00,WSDL version 420,2013-02-07 05:52:00,
2013-02-07 16:57:00,86.0,54.6,29.91,NE,56,7.0,11.0,34,0.00,,,0.00,WSDL version 420,2013-02-07 05:57:00,
2013-02-07 17:02:00,84.8,53.9,29.91,ENE,70,6.8,12.5,35,0.00,,,0.00,WSDL version 420,2013-02-07 06:02:00,
2013-02-07 17:07:00,83.7,53.8,29.91,ENE,71,7.8,13.0,36,0.00,,,0.00,WSDL version 420,2013-02-07 06:07:00,
2013-02-07 17:12:00,84.5,54.6,29.91,ESE,103,4.3,13.0,36,0.00,,,0.00,WSDL version 420,2013-02-07 06:12:00,
2013-02-07 17:17:00,84.7,54.5,29.91,East,84,4.5,11.0,35,0.00,,,0.00,WSDL version 420,2013-02-07 06:17:00,
2013-02-07 17:22:00,85.0,54.3,29.91,NE,45,5.5,8.1,35,0.00,,,0.00,WSDL version 420,2013-02-07 06:22:00,
2013-02-07 17:27:00,85.9,54.5,29.91,NNE,26,4.4,8.1,33,0.00,,,0.00,WSDL version 420,2013-02-07 06:27:00,
2013-02-07 17:32:00,85.8,54.2,29.91,East,87,2.8,7.8,34,0.00,,,0.00,WSDL version 420,2013-02-07 06:32:00,
2013-02-07 17:37:00,85.8,54.2,29.91,North,6,3.1,12.1,34,0.00,,,0.00,WSDL version 420,2013-02-07 06:37:00,
2013-02-07 17:42:00,85.9,54.1,29.91,ENE,71,5.4,12.1,34,0.00,,,0.00,WSDL version 420,2013-02-07 06:42:00,
2013-02-07 17:47:00,85.4,53.9,29.91,NE,42,4.4,13.0,34,0.00,,,0.00,WSDL version 420,2013-02-07 06:47:00,
2013-02-07 17:52:00,84.6,53.6,29.91,East,79,4.9,13.0,35,0.00,,,0.00,WSDL version 420,2013-02-07 06:52:00,
2013-02-07 17:57:00,83.7,54.3,29.91,East,93,5.1,8.7,37,0.00,,,0.00,WSDL version 420,2013-02-07 06:57:00,
2013-02-07 18:02:00,83.3,54.9,29.91,ENE,64,4.9,8.7,38,0.00,,,0.00,WSDL version 420,2013-02-07 07:02:00,
2013-02-07 18:07:00,82.0,54.6,29.91,NE,56,7.5,13.0,40,0.00,,,0.00,WSDL version 420,2013-02-07 07:07:00,
2013-02-07 18:12:00,81.6,54.8,29.91,ENE,58,7.1,13.0,40,0.00,,,0.00,WSDL version 420,2013-02-07 07:12:00,
2013-02-07 18:17:00,81.1,54.6,29.91,East,98,5.4,12.3,40,0.00,,,0.00,WSDL version 420,2013-02-07 07:17:00,
2013-02-07 18:22:00,81.1,54.5,29.91,ENE,71,5.8,11.0,40,0.00,,,0.00,WSDL version 420,2013-02-07 07:22:00,
2013-02-07 18:27:00,80.6,54.3,29.91,East,82,6.3,12.8,41,0.00,,,0.00,WSDL version 420,2013-02-07 07:27:00,
2013-02-07 18:32:00,80.2,54.4,29.91,ENE,70,5.6,12.8,41,-99.99,,,-99.99,WSDL version 420,2013-02-07 07:32:00,
2013-02-07 18:37:00,80.3,54.5,29.91,NE,54,3.8,9.2,41,0.00,,,0.00,WSDL version 420,2013-02-07 07:37:00,
2013-02-07 18:42:00,80.0,54.2,29.91,ENE,68,6.8,12.1,41,0.00,,,0.00,WSDL version 420,2013-02-07 07:42:00,
2013-02-07 18:47:00,78.7,54.0,29.91,East,83,5.4,13.4,43,0.00,,,0.00,WSDL version 420,2013-02-07 07:47:00,
2013-02-07 18:52:00,77.4,54.2,29.91,East,96,5.5,13.4,45,0.00,,,0.00,WSDL version 420,2013-02-07 07:52:00,
2013-02-07 18:57:00,76.6,54.8,29.91,East,90,5.5,12.3,48,0.00,,,0.00,WSDL version 420,2013-02-07 07:57:00,
2013-02-07 19:02:00,76.2,55.3,29.91,North,3,4.7,15.4,48,0.00,,,0.00,WSDL version 420,2013-02-07 08:02:00,
2013-02-07 19:07:00,75.9,55.9,29.91,ENE,68,5.5,15.4,50,0.00,,,0.00,WSDL version 420,2013-02-07 08:07:00,
2013-02-07 19:12:00,75.6,56.0,29.91,East,80,5.4,9.8,51,0.00,,,0.00,WSDL version 420,2013-02-07 08:12:00,
2013-02-07 19:17:00,75.2,56.4,29.94,ESE,106,4.2,9.8,52,0.00,,,0.00,WSDL version 420,2013-02-07 08:17:00,
2013-02-07 19:22:00,75.0,56.5,29.94,ENE,65,5.5,10.5,53,0.00,,,0.00,WSDL version 420,2013-02-07 08:22:00,
2013-02-07 19:27:00,74.7,56.2,29.94,NNE,29,4.8,10.5,52,0.00,,,0.00,WSDL version 420,2013-02-07 08:27:00,
2013-02-07 19:32:00,74.6,55.8,29.94,NE,48,4.6,8.5,52,0.00,,,0.00,WSDL version 420,2013-02-07 08:32:00,
2013-02-07 19:37:00,74.4,55.7,29.94,SE,124,3.9,7.8,52,0.00,,,0.00,WSDL version 420,2013-02-07 08:37:00,
2013-02-07 19:42:00,74.2,55.2,29.94,NE,53,3.9,10.3,52,0.00,,,0.00,WSDL version 420,2013-02-07 08:42:00,
2013-02-07 19:47:00,74.1,54.6,29.94,ENE,71,5.8,10.3,50,0.00,,,0.00,WSDL version 420,2013-02-07 08:47:00,
2013-02-07 19:52:00,73.9,54.4,29.94,ENE,68,4.2,9.8,50,0.00,,,0.00,WSDL version 420,2013-02-07 08:52:00,
2013-02-07 19:57:00,73.8,54.6,29.94,ENE,58,3.2,8.7,51,0.00,,,0.00,WSDL version 420,2013-02-07 08:57:00,
2013-02-07 20:02:00,73.6,54.4,29.94,NNE,19,4.9,9.8,51,0.00,,,0.00,WSDL version 420,2013-02-07 09:02:00,
2013-02-07 20:07:00,73.6,54.4,29.94,NNE,29,4.8,9.8,51,0.00,,,0.00,WSDL version 420,2013-02-07 09:07:00,
2013-02-07 20:14:00,73.3,54.9,29.94,ENE,76,3.6,8.7,53,0.00,,,0.00,WSDL version 420,2013-02-07 09:14:00,
2013-02-07 20:19:00,73.1,55.4,29.94,East,93,3.0,8.1,54,0.00,,,0.00,WSDL version 420,2013-02-07 09:19:00,
2013-02-07 20:24:00,73.0,55.2,29.94,ENE,75,3.3,8.1,54,0.00,,,0.00,WSDL version 420,2013-02-07 09:24:00,
2013-02-07 20:29:00,72.9,55.3,29.94,NE,39,3.5,7.6,54,0.00,,,0.00,WSDL version 420,2013-02-07 09:29:00,
2013-02-07 20:34:00,72.7,55.0,29.94,NE,45,3.8,7.6,53,0.00,,,0.00,WSDL version 420,2013-02-07 09:34:00,
2013-02-07 20:39:00,72.7,54.7,29.94,NE,42,2.7,7.2,53,0.00,,,0.00,WSDL version 420,2013-02-07 09:39:00,
2013-02-07 20:44:00,72.5,54.5,29.97,ENE,68,3.6,7.2,53,0.00,,,0.00,WSDL version 420,2013-02-07 09:44:00,
2013-02-07 20:49:00,72.5,54.4,29.97,SE,132,2.7,8.1,53,0.00,,,0.00,WSDL version 420,2013-02-07 09:49:00,
2013-02-07 20:54:00,72.4,53.8,29.97,North,11,2.5,8.1,52,0.00,,,0.00,WSDL version 420,2013-02-07 09:54:00,
2013-02-07 20:59:00,72.3,53.9,29.94,NE,54,4.7,10.1,52,0.00,,,0.00,WSDL version 420,2013-02-07 09:59:00,
2013-02-07 21:04:00,72.3,54.1,29.94,NNW,329,3.4,10.1,53,0.00,,,0.00,WSDL version 420,2013-02-07 10:04:00,
2013-02-07 21:09:00,72.3,54.3,29.94,NE,42,4.3,7.8,53,0.00,,,0.00,WSDL version 420,2013-02-07 10:09:00,
2013-02-07 21:14:00,72.1,54.1,29.94,NNE,23,4.9,8.1,53,0.00,,,0.00,WSDL version 420,2013-02-07 10:14:00,
2013-02-07 21:19:00,72.0,54.3,29.94,ENE,61,4.4,8.1,54,0.00,,,0.00,WSDL version 420,2013-02-07 10:19:00,
2013-02-07 21:24:00,72.0,54.4,29.94,ESE,113,3.2,7.2,54,0.00,,,0.00,WSDL version 420,2013-02-07 10:24:00,
2013-02-07 21:29:00,71.8,54.8,29.94,NNE,32,2.9,7.2,55,0.00,,,0.00,WSDL version 420,2013-02-07 10:29:00,
2013-02-07 21:34:00,71.6,55.3,29.94,ENE,63,4.3,5.8,57,0.00,,,0.00,WSDL version 420,2013-02-07 10:34:00,
2013-02-07 21:39:00,71.5,55.6,29.94,NNE,28,3.1,5.8,58,0.00,,,0.00,WSDL version 420,2013-02-07 10:39:00,
2013-02-07 21:44:00,71.3,55.5,29.94,ENE,74,1.4,5.4,58,0.00,,,0.00,WSDL version 420,2013-02-07 10:44:00,
2013-02-07 21:49:00,71.1,56.3,29.94,NNE,31,4.0,6.3,60,0.00,,,0.00,WSDL version 420,2013-02-07 10:49:00,
2013-02-07 21:54:00,71.1,56.5,29.94,ENE,68,3.0,6.3,60,0.00,,,0.00,WSDL version 420,2013-02-07 10:54:00,
2013-02-07 21:59:00,71.1,56.9,29.94,NNE,17,3.1,6.0,60,0.00,,,0.00,WSDL version 420,2013-02-07 10:59:00,
2013-02-07 22:04:00,70.9,56.8,29.94,WSW,254,2.9,6.0,61,0.00,,,0.00,WSDL version 420,2013-02-07 11:04:00,
2013-02-07 22:09:00,70.7,56.9,29.94,NE,48,3.4,6.0,62,0.00,,,0.00,WSDL version 420,2013-02-07 11:09:00,
2013-02-07 22:14:00,70.7,57.1,29.97,ENE,58,2.7,6.3,62,-99.99,,,-99.99,WSDL version 420,2013-02-07 11:14:00,
2013-02-07 22:19:00,70.5,56.7,29.97,North,354,2.2,6.3,62,0.00,,,0.00,WSDL version 420,2013-02-07 11:19:00,
2013-02-07 22:24:00,70.3,56.8,29.97,NNE,17,2.7,6.5,62,0.00,,,0.00,WSDL version 420,2013-02-07 11:24:00,
2013-02-07 22:29:00,70.2,56.8,29.97,West,259,2.9,6.5,64,0.00,,,0.00,WSDL version 420,2013-02-07 11:29:00,
2013-02-07 22:34:00,70.2,57.4,29.97,ENE,73,3.0,6.7,64,0.00,,,0.00,WSDL version 420,2013-02-07 11:34:00,
2013-02-07 22:39:00,70.2,57.4,29.97,NE,55,2.8,6.7,64,0.00,,,0.00,WSDL version 420,2013-02-07 11:39:00,
2013-02-07 22:44:00,70.1,57.3,29.97,NE,48,3.0,5.8,64,0.00,,,0.00,WSDL version 420,2013-02-07 11:44:00,
2013-02-07 22:49:00,70.0,57.4,29.97,East,83,2.7,4.7,65,0.00,,,0.00,WSDL version 420,2013-02-07 11:49:00,
2013-02-07 22:54:00,69.9,57.5,29.97,SW,235,1.9,4.3,64,0.00,,,0.00,WSDL version 420,2013-02-07 11:54:00,
2013-02-07 22:59:00,69.8,57.9,29.97,ENE,71,3.0,6.7,66,-99.99,,,-99.99,WSDL version 420,2013-02-07 11:59:00,
2013-02-07 23:04:00,69.8,57.6,29.97,ENE,58,1.7,6.7,66,0.00,,,0.00,WSDL version 420,2013-02-07 12:04:00,
2013-02-07 23:14:00,69.6,58.2,29.97,NE,34,2.5,6.0,67,0.00,,,0.00,WSDL version 420,2013-02-07 12:14:00,
2013-02-07 23:19:00,69.4,58.0,29.97,NE,54,2.9,4.9,67,0.00,,,0.00,WSDL version 420,2013-02-07 12:19:00,
2013-02-07 23:24:00,69.4,58.0,29.97,ESE,110,1.8,4.9,67,0.00,,,0.00,WSDL version 420,2013-02-07 12:24:00,
2013-02-07 23:34:00,69.4,58.6,29.97,East,79,3.9,7.4,68,0.00,,,0.00,WSDL version 420,2013-02-07 12:34:00,
2013-02-07 23:39:00,69.4,58.4,29.97,North,353,0.7,7.4,68,0.00,,,0.00,WSDL version 420,2013-02-07 12:39:00,
2013-02-07 23:44:00,69.3,58.4,29.97,ENE,74,1.9,4.9,69,0.00,,,0.00,WSDL version 420,2013-02-07 12:44:00,
2013-02-07 23:49:00,69.3,58.7,29.97,NE,42,2.4,6.5,69,0.00,,,0.00,WSDL version 420,2013-02-07 12:49:00,
2013-02-07 23:54:00,69.2,58.2,29.97,ENE,73,2.5,6.5,68,0.00,,,0.00,WSDL version 420,2013-02-07 12:54:00,
2013-02-07 23:59:00,69.0,58.2,29.97,ENE,60,1.2,3.8,69,-99.99,,,-99.99,WSDL version 420,2013-02-07 12:59:00,